sensor_id;sensor_type;location;lat;lon;timestamp;temperature;humidity
8269;DHT22;4174;48.304;16.364;2022-11-09T00:03:45;9.90;99.90
8269;DHT22;4174;48.304;16.364;2022-11-09T00:09:48;9.80;99.90
8269;DHT22;4174;48.304;16.364;2022-11-09T00:15:51;9.80;99.90
8269;DHT22;4174;48.304;16.364;2022-11-09T00:21:56;9.90;99.90
8269;DHT22;4174;48.304;16.364;2022-11-09T00:28:00;9.90;99.90
8269;DHT22;4174;48.304;16.364;2022-11-09T00:34:04;9.90;99.90
8269;DHT22;4174;48.304;16.364;2022-11-09T00:40:10;9.90;99.90
8269;DHT22;4174;48.304;16.364;2022-11-09T00:46:15;9.90;99.90
8269;DHT22;4174;48.304;16.364;2022-11-09T00:52:18;9.80;99.90
8269;DHT22;4174;48.304;16.364;2022-11-09T00:58:23;9.80;99.90
8269;DHT22;4174;48.304;16.364;2022-11-09T01:04:26;9.80;99.90
8269;DHT22;4174;48.304;16.364;2022-11-09T01:10:30;9.90;99.90
8269;DHT22;4174;48.304;16.364;2022-11-09T01:16:33;10.10;99.90
8269;DHT22;4174;48.304;16.364;2022-11-09T01:22:37;10.20;99.90
8269;DHT22;4174;48.304;16.364;2022-11-09T01:28:40;10.10;99.90
8269;DHT22;4174;48.304;16.364;2022-11-09T01:34:43;10.20;99.90
8269;DHT22;4174;48.304;16.364;2022-11-09T01:40:47;10.10;99.90
8269;DHT22;4174;48.304;16.364;2022-11-09T01:47:00;10.10;99.90
8269;DHT22;4174;48.304;16.364;2022-11-09T01:53:03;10.10;99.90
8269;DHT22;4174;48.304;16.364;2022-11-09T01:59:07;10.20;99.90
8269;DHT22;4174;48.304;16.364;2022-11-09T02:05:11;10.20;99.90
8269;DHT22;4174;48.304;16.364;2022-11-09T02:11:13;10.20;99.90
8269;DHT22;4174;48.304;16.364;2022-11-09T02:17:15;10.00;99.90
8269;DHT22;4174;48.304;16.364;2022-11-09T02:23:18;10.00;99.90
8269;DHT22;4174;48.304;16.364;2022-11-09T02:29:22;10.10;99.90
8269;DHT22;4174;48.304;16.364;2022-11-09T02:35:27;10.00;99.90
8269;DHT22;4174;48.304;16.364;2022-11-09T02:41:30;10.00;99.90
8269;DHT22;4174;48.304;16.364;2022-11-09T02:47:34;10.20;99.90
8269;DHT22;4174;48.304;16.364;2022-11-09T02:53:39;10.40;99.90
8269;DHT22;4174;48.304;16.364;2022-11-09T02:59:43;10.30;99.90
8269;DHT22;4174;48.304;16.364;2022-11-09T03:05:46;10.30;99.90
8269;DHT22;4174;48.304;16.364;2022-11-09T03:11:51;10.30;99.90
8269;DHT22;4174;48.304;16.364;2022-11-09T03:17:55;10.30;99.90
8269;DHT22;4174;48.304;16.364;2022-11-09T03:23:58;10.30;99.90
8269;DHT22;4174;48.304;16.364;2022-11-09T03:30:02;10.30;99.90
8269;DHT22;4174;48.304;16.364;2022-11-09T03:36:07;10.20;99.90
8269;DHT22;4174;48.304;16.364;2022-11-09T03:42:11;10.40;99.90
8269;DHT22;4174;48.304;16.364;2022-11-09T03:48:15;10.50;99.90
8269;DHT22;4174;48.304;16.364;2022-11-09T03:54:19;10.50;99.90
8269;DHT22;4174;48.304;16.364;2022-11-09T04:00:22;10.50;99.90
8269;DHT22;4174;48.304;16.364;2022-11-09T04:06:26;10.50;99.90
8269;DHT22;4174;48.304;16.364;2022-11-09T04:12:29;10.50;99.90
8269;DHT22;4174;48.304;16.364;2022-11-09T04:18:33;10.60;99.90
8269;DHT22;4174;48.304;16.364;2022-11-09T04:24:37;10.70;99.90
8269;DHT22;4174;48.304;16.364;2022-11-09T04:30:41;10.50;99.90
8269;DHT22;4174;48.304;16.364;2022-11-09T04:36:46;10.50;99.90
8269;DHT22;4174;48.304;16.364;2022-11-09T04:42:49;10.50;99.90
8269;DHT22;4174;48.304;16.364;2022-11-09T04:48:54;10.70;99.90
8269;DHT22;4174;48.304;16.364;2022-11-09T04:54:57;10.70;99.90
8269;DHT22;4174;48.304;16.364;2022-11-09T05:01:02;10.70;99.90
8269;DHT22;4174;48.304;16.364;2022-11-09T05:07:07;10.70;99.90
8269;DHT22;4174;48.304;16.364;2022-11-09T05:13:11;10.70;99.90
8269;DHT22;4174;48.304;16.364;2022-11-09T05:19:13;10.70;99.90
8269;DHT22;4174;48.304;16.364;2022-11-09T05:25:17;10.70;99.90
8269;DHT22;4174;48.304;16.364;2022-11-09T05:31:21;10.80;99.90
8269;DHT22;4174;48.304;16.364;2022-11-09T05:37:25;10.80;99.90
8269;DHT22;4174;48.304;16.364;2022-11-09T05:43:30;10.80;99.90
8269;DHT22;4174;48.304;16.364;2022-11-09T05:49:35;10.80;99.90
8269;DHT22;4174;48.304;16.364;2022-11-09T05:55:40;11.10;99.90
8269;DHT22;4174;48.304;16.364;2022-11-09T06:01:45;11.10;99.90
8269;DHT22;4174;48.304;16.364;2022-11-09T06:07:49;10.70;99.90
8269;DHT22;4174;48.304;16.364;2022-11-09T06:13:53;10.80;99.90
8269;DHT22;4174;48.304;16.364;2022-11-09T06:19:56;11.10;99.90
8269;DHT22;4174;48.304;16.364;2022-11-09T06:26:02;11.10;99.90
8269;DHT22;4174;48.304;16.364;2022-11-09T06:32:05;11.20;99.90
8269;DHT22;4174;48.304;16.364;2022-11-09T06:38:09;11.10;99.90
8269;DHT22;4174;48.304;16.364;2022-11-09T06:44:13;10.80;99.90
8269;DHT22;4174;48.304;16.364;2022-11-09T06:50:17;10.50;99.90
8269;DHT22;4174;48.304;16.364;2022-11-09T06:56:21;10.50;99.90
8269;DHT22;4174;48.304;16.364;2022-11-09T07:02:25;10.30;99.90
8269;DHT22;4174;48.304;16.364;2022-11-09T07:08:29;10.30;99.90
8269;DHT22;4174;48.304;16.364;2022-11-09T07:14:33;10.30;99.90
8269;DHT22;4174;48.304;16.364;2022-11-09T07:20:36;10.00;99.90
8269;DHT22;4174;48.304;16.364;2022-11-09T07:26:41;10.10;99.90
8269;DHT22;4174;48.304;16.364;2022-11-09T07:32:46;10.10;99.90
8269;DHT22;4174;48.304;16.364;2022-11-09T07:38:50;10.20;99.90
8269;DHT22;4174;48.304;16.364;2022-11-09T07:44:54;10.10;99.90
8269;DHT22;4174;48.304;16.364;2022-11-09T07:50:59;10.10;99.90
8269;DHT22;4174;48.304;16.364;2022-11-09T07:57:00;10.20;99.90
8269;DHT22;4174;48.304;16.364;2022-11-09T08:03:04;10.20;99.90
8269;DHT22;4174;48.304;16.364;2022-11-09T08:09:09;10.40;99.90
8269;DHT22;4174;48.304;16.364;2022-11-09T08:15:13;10.40;99.90
8269;DHT22;4174;48.304;16.364;2022-11-09T08:21:17;10.70;99.90
8269;DHT22;4174;48.304;16.364;2022-11-09T08:27:23;10.60;99.90
8269;DHT22;4174;48.304;16.364;2022-11-09T08:33:27;10.90;99.90
8269;DHT22;4174;48.304;16.364;2022-11-09T08:39:30;10.70;99.90
8269;DHT22;4174;48.304;16.364;2022-11-09T08:45:34;10.60;99.90
8269;DHT22;4174;48.304;16.364;2022-11-09T08:51:36;10.60;99.90
8269;DHT22;4174;48.304;16.364;2022-11-09T08:57:40;10.50;99.90
8269;DHT22;4174;48.304;16.364;2022-11-09T09:03:45;10.70;99.90
8269;DHT22;4174;48.304;16.364;2022-11-09T09:09:50;10.50;99.90
8269;DHT22;4174;48.304;16.364;2022-11-09T09:15:54;10.50;99.90
8269;DHT22;4174;48.304;16.364;2022-11-09T09:21:58;10.60;99.90
8269;DHT22;4174;48.304;16.364;2022-11-09T09:28:00;10.80;99.90
8269;DHT22;4174;48.304;16.364;2022-11-09T09:34:05;11.00;99.90
8269;DHT22;4174;48.304;16.364;2022-11-09T09:46:28;11.00;99.90
8269;DHT22;4174;48.304;16.364;2022-11-09T09:52:54;11.00;99.90
8269;DHT22;4174;48.304;16.364;2022-11-09T09:59:18;11.10;99.90
8269;DHT22;4174;48.304;16.364;2022-11-09T10:05:23;11.10;99.90
8269;DHT22;4174;48.304;16.364;2022-11-09T10:12:04;11.10;99.90
8269;DHT22;4174;48.304;16.364;2022-11-09T10:24:26;11.20;99.90
8269;DHT22;4174;48.304;16.364;2022-11-09T10:30:41;11.40;99.90
8269;DHT22;4174;48.304;16.364;2022-11-09T10:36:48;11.40;99.90
8269;DHT22;4174;48.304;16.364;2022-11-09T10:42:54;11.40;99.90
8269;DHT22;4174;48.304;16.364;2022-11-09T10:49:07;11.40;99.90
8269;DHT22;4174;48.304;16.364;2022-11-09T10:55:16;11.60;99.90
8269;DHT22;4174;48.304;16.364;2022-11-09T11:01:34;11.80;99.90
8269;DHT22;4174;48.304;16.364;2022-11-09T11:07:28;11.70;99.90
8269;DHT22;4174;48.304;16.364;2022-11-09T11:13:33;11.90;99.90
8269;DHT22;4174;48.304;16.364;2022-11-09T11:19:37;11.90;99.90
8269;DHT22;4174;48.304;16.364;2022-11-09T11:25:57;12.20;99.90
8269;DHT22;4174;48.304;16.364;2022-11-09T11:32:00;12.20;99.90
8269;DHT22;4174;48.304;16.364;2022-11-09T11:44:57;12.50;99.90
8269;DHT22;4174;48.304;16.364;2022-11-09T11:51:09;12.40;99.90
8269;DHT22;4174;48.304;16.364;2022-11-09T11:57:16;12.60;99.90
8269;DHT22;4174;48.304;16.364;2022-11-09T12:03:33;12.60;99.90
8269;DHT22;4174;48.304;16.364;2022-11-09T12:16:06;12.70;99.90
8269;DHT22;4174;48.304;16.364;2022-11-09T12:22:38;12.70;99.90
8269;DHT22;4174;48.304;16.364;2022-11-09T12:35:11;12.80;99.90
8269;DHT22;4174;48.304;16.364;2022-11-09T12:41:14;12.80;99.90
8269;DHT22;4174;48.304;16.364;2022-11-09T12:47:18;12.80;99.90
8269;DHT22;4174;48.304;16.364;2022-11-09T12:53:19;12.80;99.90
8269;DHT22;4174;48.304;16.364;2022-11-09T12:59:33;12.80;99.90
8269;DHT22;4174;48.304;16.364;2022-11-09T13:05:39;12.80;99.90
8269;DHT22;4174;48.304;16.364;2022-11-09T13:11:45;12.90;99.90
8269;DHT22;4174;48.304;16.364;2022-11-09T13:30:50;12.90;99.90
8269;DHT22;4174;48.304;16.364;2022-11-09T13:43:30;12.90;99.90
8269;DHT22;4174;48.304;16.364;2022-11-09T13:49:36;12.90;99.90
8269;DHT22;4174;48.304;16.364;2022-11-09T13:55:47;12.80;99.90
8269;DHT22;4174;48.304;16.364;2022-11-09T14:01:52;12.90;99.90
8269;DHT22;4174;48.304;16.364;2022-11-09T14:08:01;12.90;99.90
8269;DHT22;4174;48.304;16.364;2022-11-09T14:14:11;12.80;99.90
8269;DHT22;4174;48.304;16.364;2022-11-09T14:20:35;12.70;99.90
8269;DHT22;4174;48.304;16.364;2022-11-09T14:26:36;12.60;99.90
8269;DHT22;4174;48.304;16.364;2022-11-09T14:32:40;12.60;99.90
8269;DHT22;4174;48.304;16.364;2022-11-09T14:38:44;12.60;99.90
8269;DHT22;4174;48.304;16.364;2022-11-09T14:44:46;12.70;99.90
8269;DHT22;4174;48.304;16.364;2022-11-09T14:50:50;12.70;99.90
8269;DHT22;4174;48.304;16.364;2022-11-09T14:56:53;12.60;99.90
8269;DHT22;4174;48.304;16.364;2022-11-09T15:02:56;12.70;99.90
8269;DHT22;4174;48.304;16.364;2022-11-09T15:09:03;12.60;99.90
8269;DHT22;4174;48.304;16.364;2022-11-09T15:15:06;12.60;99.90
8269;DHT22;4174;48.304;16.364;2022-11-09T15:21:11;12.60;99.90
8269;DHT22;4174;48.304;16.364;2022-11-09T15:33:50;12.50;99.90
8269;DHT22;4174;48.304;16.364;2022-11-09T15:39:52;12.30;99.90
8269;DHT22;4174;48.304;16.364;2022-11-09T15:45:55;12.30;99.90
8269;DHT22;4174;48.304;16.364;2022-11-09T15:51:58;12.30;99.90
8269;DHT22;4174;48.304;16.364;2022-11-09T15:58:02;12.10;99.90
8269;DHT22;4174;48.304;16.364;2022-11-09T16:04:05;11.90;99.90
8269;DHT22;4174;48.304;16.364;2022-11-09T16:10:12;11.90;99.90
8269;DHT22;4174;48.304;16.364;2022-11-09T16:16:14;11.70;99.90
8269;DHT22;4174;48.304;16.364;2022-11-09T16:22:17;11.60;99.90
8269;DHT22;4174;48.304;16.364;2022-11-09T16:28:21;11.50;99.90
8269;DHT22;4174;48.304;16.364;2022-11-09T16:34:23;11.50;99.90
8269;DHT22;4174;48.304;16.364;2022-11-09T16:40:27;11.50;99.90
8269;DHT22;4174;48.304;16.364;2022-11-09T16:46:31;11.50;99.90
8269;DHT22;4174;48.304;16.364;2022-11-09T16:52:35;11.50;99.90
8269;DHT22;4174;48.304;16.364;2022-11-09T16:58:40;11.30;99.90
8269;DHT22;4174;48.304;16.364;2022-11-09T17:04:43;11.20;99.90
8269;DHT22;4174;48.304;16.364;2022-11-09T17:10:47;11.10;99.90
8269;DHT22;4174;48.304;16.364;2022-11-09T17:16:51;10.90;99.90
8269;DHT22;4174;48.304;16.364;2022-11-09T17:22:56;10.90;99.90
8269;DHT22;4174;48.304;16.364;2022-11-09T17:29:00;10.70;99.90
8269;DHT22;4174;48.304;16.364;2022-11-09T17:35:05;10.60;99.90
8269;DHT22;4174;48.304;16.364;2022-11-09T17:41:12;10.50;99.90
8269;DHT22;4174;48.304;16.364;2022-11-09T17:47:16;10.40;99.90
8269;DHT22;4174;48.304;16.364;2022-11-09T17:53:20;10.30;99.90
8269;DHT22;4174;48.304;16.364;2022-11-09T17:59:23;10.10;99.90
8269;DHT22;4174;48.304;16.364;2022-11-09T18:05:30;10.00;99.90
8269;DHT22;4174;48.304;16.364;2022-11-09T18:11:34;9.80;99.90
8269;DHT22;4174;48.304;16.364;2022-11-09T18:17:40;9.60;99.90
8269;DHT22;4174;48.304;16.364;2022-11-09T18:23:44;9.60;99.90
8269;DHT22;4174;48.304;16.364;2022-11-09T18:29:47;9.40;99.90
8269;DHT22;4174;48.304;16.364;2022-11-09T18:35:59;9.30;99.90
8269;DHT22;4174;48.304;16.364;2022-11-09T18:42:01;9.30;99.90
8269;DHT22;4174;48.304;16.364;2022-11-09T18:48:06;9.20;99.90
8269;DHT22;4174;48.304;16.364;2022-11-09T18:54:10;9.00;99.90
8269;DHT22;4174;48.304;16.364;2022-11-09T19:00:14;8.90;99.90
8269;DHT22;4174;48.304;16.364;2022-11-09T19:06:19;8.90;99.90
8269;DHT22;4174;48.304;16.364;2022-11-09T19:12:21;8.80;99.90
8269;DHT22;4174;48.304;16.364;2022-11-09T19:18:24;8.80;99.90
8269;DHT22;4174;48.304;16.364;2022-11-09T19:24:28;8.80;99.90
8269;DHT22;4174;48.304;16.364;2022-11-09T19:30:32;8.80;99.90
8269;DHT22;4174;48.304;16.364;2022-11-09T19:36:36;8.80;99.90
8269;DHT22;4174;48.304;16.364;2022-11-09T19:42:40;8.90;99.90
8269;DHT22;4174;48.304;16.364;2022-11-09T19:48:44;8.90;99.90
8269;DHT22;4174;48.304;16.364;2022-11-09T19:54:47;8.90;99.90
8269;DHT22;4174;48.304;16.364;2022-11-09T20:00:59;8.90;99.90
8269;DHT22;4174;48.304;16.364;2022-11-09T20:06:54;8.90;99.90
8269;DHT22;4174;48.304;16.364;2022-11-09T20:12:58;8.90;99.90
8269;DHT22;4174;48.304;16.364;2022-11-09T20:19:02;8.80;99.90
8269;DHT22;4174;48.304;16.364;2022-11-09T20:25:05;8.80;99.90
8269;DHT22;4174;48.304;16.364;2022-11-09T20:31:11;8.70;99.90
8269;DHT22;4174;48.304;16.364;2022-11-09T20:37:15;8.60;99.90
8269;DHT22;4174;48.304;16.364;2022-11-09T20:43:18;8.60;99.90
8269;DHT22;4174;48.304;16.364;2022-11-09T20:49:21;8.60;99.90
8269;DHT22;4174;48.304;16.364;2022-11-09T20:55:25;8.70;99.90
8269;DHT22;4174;48.304;16.364;2022-11-09T21:01:28;8.80;99.90
8269;DHT22;4174;48.304;16.364;2022-11-09T21:07:33;8.80;99.90
8269;DHT22;4174;48.304;16.364;2022-11-09T21:13:37;8.80;99.90
8269;DHT22;4174;48.304;16.364;2022-11-09T21:19:40;8.70;99.90
8269;DHT22;4174;48.304;16.364;2022-11-09T21:25:44;8.70;99.90
8269;DHT22;4174;48.304;16.364;2022-11-09T21:31:57;8.80;99.90
8269;DHT22;4174;48.304;16.364;2022-11-09T21:38:03;9.00;99.90
8269;DHT22;4174;48.304;16.364;2022-11-09T21:44:07;8.90;99.90
8269;DHT22;4174;48.304;16.364;2022-11-09T21:50:11;9.10;99.90
8269;DHT22;4174;48.304;16.364;2022-11-09T21:56:14;9.10;99.90
8269;DHT22;4174;48.304;16.364;2022-11-09T22:02:19;9.20;99.90
8269;DHT22;4174;48.304;16.364;2022-11-09T22:08:24;9.10;99.90
8269;DHT22;4174;48.304;16.364;2022-11-09T22:14:27;9.10;99.90
8269;DHT22;4174;48.304;16.364;2022-11-09T22:20:36;9.10;99.90
8269;DHT22;4174;48.304;16.364;2022-11-09T22:26:45;9.10;99.90
8269;DHT22;4174;48.304;16.364;2022-11-09T22:32:49;9.00;99.90
8269;DHT22;4174;48.304;16.364;2022-11-09T22:38:54;9.00;99.90
8269;DHT22;4174;48.304;16.364;2022-11-09T22:44:56;9.10;99.90
8269;DHT22;4174;48.304;16.364;2022-11-09T22:51:00;9.10;99.90
8269;DHT22;4174;48.304;16.364;2022-11-09T22:57:03;8.90;99.90
8269;DHT22;4174;48.304;16.364;2022-11-09T23:03:06;8.50;99.90
8269;DHT22;4174;48.304;16.364;2022-11-09T23:09:11;8.40;99.90
8269;DHT22;4174;48.304;16.364;2022-11-09T23:15:14;8.30;99.90
8269;DHT22;4174;48.304;16.364;2022-11-09T23:21:18;8.40;99.90
8269;DHT22;4174;48.304;16.364;2022-11-09T23:27:36;8.50;99.90
8269;DHT22;4174;48.304;16.364;2022-11-09T23:33:41;8.40;99.90
8269;DHT22;4174;48.304;16.364;2022-11-09T23:39:45;8.40;99.90
8269;DHT22;4174;48.304;16.364;2022-11-09T23:45:49;8.40;99.90
8269;DHT22;4174;48.304;16.364;2022-11-09T23:51:56;8.30;99.90
8269;DHT22;4174;48.304;16.364;2022-11-09T23:58:01;8.40;99.90
